createdAt,value
2022-09-11T00:00:52.466Z,990.4
2022-09-11T00:01:54.300Z,990.46
2022-09-11T00:03:15.109Z,990.5
2022-09-11T00:04:59.877Z,990.5
2022-09-11T00:05:02.625Z,990.47
2022-09-11T00:06:04.149Z,990.49
2022-09-11T00:07:02.889Z,990.45
2022-09-11T00:08:04.641Z,990.48
2022-09-11T00:09:06.324Z,990.44
2022-09-11T00:10:08.068Z,990.44
2022-09-11T00:11:09.793Z,990.41
2022-09-11T00:12:11.535Z,990.44
2022-09-11T00:13:13.329Z,990.45
2022-09-11T00:14:15.039Z,990.4
2022-09-11T00:15:16.735Z,990.49
2022-09-11T00:16:18.514Z,990.47
2022-09-11T00:17:20.245Z,990.47
2022-09-11T00:18:21.931Z,990.53
2022-09-11T00:19:23.762Z,990.49
2022-09-11T00:20:25.430Z,990.53
2022-09-11T00:21:27.137Z,990.51
2022-09-11T00:22:28.905Z,990.51
2022-09-11T00:23:30.602Z,990.49
2022-09-11T00:24:32.396Z,990.51
2022-09-11T00:25:34.151Z,990.56
2022-09-11T00:26:35.831Z,990.58
2022-09-11T00:27:37.552Z,990.55
2022-09-11T00:28:39.284Z,990.57
2022-09-11T00:29:41.041Z,990.55
2022-09-11T00:30:42.802Z,990.52
2022-09-11T00:31:44.534Z,990.6
2022-09-11T00:32:46.229Z,990.63
2022-09-11T00:33:47.988Z,990.67
2022-09-11T00:34:49.679Z,990.66
2022-09-11T00:35:51.428Z,990.67
2022-09-11T00:36:53.153Z,990.71
2022-09-11T00:37:54.890Z,990.71
2022-09-11T00:38:56.626Z,990.72
2022-09-11T00:39:58.430Z,990.75
2022-09-11T00:41:00.145Z,990.8
2022-09-11T00:42:01.835Z,990.66
2022-09-11T00:43:03.592Z,990.74
2022-09-11T00:44:05.306Z,990.72
2022-09-11T00:45:07.046Z,990.75
2022-09-11T00:46:08.899Z,990.75
2022-09-11T00:47:10.551Z,990.73
2022-09-11T00:48:12.238Z,990.71
2022-09-11T00:49:13.997Z,990.75
2022-09-11T00:50:15.710Z,990.74
2022-09-11T00:51:17.449Z,990.78
2022-09-11T00:52:19.169Z,990.76
2022-09-11T00:53:20.916Z,990.76
2022-09-11T00:54:22.650Z,990.67
2022-09-11T00:55:24.432Z,990.77
2022-09-11T00:56:26.126Z,990.75
2022-09-11T00:57:27.848Z,990.74
2022-09-11T00:58:29.617Z,990.7
2022-09-11T00:59:31.344Z,990.75
2022-09-11T01:00:33.108Z,990.67
2022-09-11T01:01:35.318Z,990.7
2022-09-11T01:02:36.560Z,990.7
2022-09-11T01:03:38.356Z,990.79
2022-09-11T01:04:40.035Z,990.82
2022-09-11T01:05:41.750Z,990.81
2022-09-11T01:06:43.481Z,990.82
2022-09-11T01:07:45.219Z,990.82
2022-09-11T01:08:46.942Z,990.88
2022-09-11T01:09:48.673Z,990.89
2022-09-11T01:10:50.411Z,990.89
2022-09-11T01:11:52.220Z,990.91
2022-09-11T01:12:53.905Z,990.92
2022-09-11T01:13:55.602Z,990.88
2022-09-11T01:14:57.338Z,990.92
2022-09-11T01:15:59.144Z,990.89
2022-09-11T01:17:00.813Z,990.91
2022-09-11T01:18:02.563Z,990.87
2022-09-11T01:19:04.306Z,990.88
2022-09-11T01:20:06.012Z,990.91
2022-09-11T01:21:07.762Z,990.85
2022-09-11T01:22:09.533Z,990.86
2022-09-11T01:23:11.257Z,990.9
2022-09-11T01:24:12.961Z,990.99
2022-09-11T01:25:14.725Z,990.98
2022-09-11T01:26:16.423Z,990.97
2022-09-11T01:27:18.172Z,990.94
2022-09-11T01:28:19.932Z,990.96
2022-09-11T01:29:21.631Z,990.96
2022-09-11T01:30:23.373Z,990.92
2022-09-11T01:31:25.188Z,990.88
2022-09-11T01:32:26.877Z,990.9
2022-09-11T01:33:28.574Z,990.87
2022-09-11T01:34:30.309Z,990.89
2022-09-11T01:35:32.080Z,990.94
2022-09-11T01:36:33.781Z,990.85
2022-09-11T01:37:35.510Z,990.91
2022-09-11T01:38:37.232Z,990.9
2022-09-11T01:39:39.040Z,990.89
2022-09-11T01:40:40.717Z,990.93
2022-09-11T01:41:42.449Z,990.91
2022-09-11T01:42:44.215Z,990.97
2022-09-11T01:43:45.912Z,990.96
2022-09-11T01:44:47.646Z,990.93
2022-09-11T01:45:49.475Z,990.92
2022-09-11T01:46:51.119Z,990.92
2022-09-11T01:47:52.874Z,990.87
2022-09-11T01:48:54.631Z,990.87
2022-09-11T01:49:56.331Z,990.88
2022-09-11T01:50:58.068Z,990.92
2022-09-11T01:51:59.804Z,990.92
2022-09-11T01:53:01.555Z,990.94
2022-09-11T01:54:03.274Z,990.92
2022-09-11T01:55:05.043Z,990.92
2022-09-11T01:56:06.738Z,990.93
2022-09-11T01:57:14.892Z,990.99
2022-09-11T01:58:10.202Z,990.97
2022-09-11T01:59:11.939Z,991.07
2022-09-11T02:00:13.711Z,991.06
2022-09-11T02:01:15.425Z,991.09
2022-09-11T02:02:17.213Z,991.11
2022-09-11T02:03:18.916Z,991.13
2022-09-11T02:04:20.639Z,991.16
2022-09-11T02:05:22.374Z,991.14
2022-09-11T02:06:24.103Z,991.15
2022-09-11T02:07:25.829Z,991.16
2022-09-11T02:08:27.574Z,991.19
2022-09-11T02:09:29.322Z,991.23
2022-09-11T02:10:31.015Z,991.26
2022-09-11T02:11:32.761Z,991.25
2022-09-11T02:12:34.492Z,991.26
2022-09-11T02:13:36.320Z,991.25
2022-09-11T02:14:37.960Z,991.26
2022-09-11T02:15:39.698Z,991.29
2022-09-11T02:16:41.453Z,991.28
2022-09-11T02:17:43.170Z,991.29
2022-09-11T02:18:44.900Z,991.3
2022-09-11T02:19:46.626Z,991.3
2022-09-11T02:20:48.361Z,991.3
2022-09-11T02:21:50.110Z,991.35
2022-09-11T02:22:51.868Z,991.27
2022-09-11T02:23:53.583Z,991.32
2022-09-11T02:24:55.306Z,991.34
2022-09-11T02:25:57.067Z,991.32
2022-09-11T02:26:58.788Z,991.33
2022-09-11T02:28:00.507Z,991.4
2022-09-11T02:29:02.241Z,991.38
2022-09-11T02:30:04.010Z,991.35
2022-09-11T02:31:05.789Z,991.38
2022-09-11T02:32:07.472Z,991.43
2022-09-11T02:33:09.229Z,991.36
2022-09-11T02:34:10.947Z,991.35
2022-09-11T02:35:12.699Z,991.36
2022-09-11T02:36:14.435Z,991.42
2022-09-11T02:37:16.132Z,991.37
2022-09-11T02:38:17.886Z,991.41
2022-09-11T02:39:19.615Z,991.38
2022-09-11T02:40:21.339Z,991.4
2022-09-11T02:41:23.096Z,991.41
2022-09-11T02:42:24.798Z,991.45
2022-09-11T02:43:26.557Z,991.48
2022-09-11T02:44:28.302Z,991.44
2022-09-11T02:45:30.044Z,991.49
2022-09-11T02:46:31.772Z,991.5
2022-09-11T02:47:33.474Z,991.52
2022-09-11T02:48:35.202Z,991.51
2022-09-11T02:49:36.957Z,991.51
2022-09-11T02:50:38.712Z,991.55
2022-09-11T02:51:40.409Z,991.56
2022-09-11T02:52:42.148Z,991.59
2022-09-11T02:53:43.968Z,991.57
2022-09-11T02:54:45.634Z,991.53
2022-09-11T02:55:47.410Z,991.54
2022-09-11T02:56:49.108Z,991.51
2022-09-11T02:57:50.809Z,991.51
2022-09-11T02:58:52.632Z,991.51
2022-09-11T02:59:54.311Z,991.43
2022-09-11T03:00:56.062Z,991.51
2022-09-11T03:01:57.830Z,991.48
2022-09-11T03:02:59.547Z,991.5
2022-09-11T03:04:01.256Z,991.47
2022-09-11T03:05:02.970Z,991.48
2022-09-11T03:06:04.723Z,991.37
2022-09-11T03:07:06.434Z,991.46
2022-09-11T03:08:08.164Z,991.46
2022-09-11T03:09:09.930Z,991.46
2022-09-11T03:10:11.626Z,991.49
2022-09-11T03:11:13.358Z,991.46
2022-09-11T03:12:15.103Z,991.49
2022-09-11T03:13:16.826Z,991.47
2022-09-11T03:14:18.572Z,991.47
2022-09-11T03:15:20.294Z,991.45
2022-09-11T03:16:22.065Z,991.46
2022-09-11T03:17:23.761Z,991.48
2022-09-11T03:18:25.526Z,991.47
2022-09-11T03:19:27.237Z,991.48
2022-09-11T03:20:29.001Z,991.49
2022-09-11T03:21:30.706Z,991.52
2022-09-11T03:22:32.449Z,991.49
2022-09-11T03:23:34.300Z,991.55
2022-09-11T03:24:35.912Z,991.5
2022-09-11T03:25:37.652Z,991.54
2022-09-11T03:26:39.377Z,991.48
2022-09-11T03:27:41.124Z,991.46
2022-09-11T03:28:42.838Z,991.5
2022-09-11T03:29:44.584Z,991.57
2022-09-11T03:30:46.311Z,991.56
2022-09-11T03:31:48.140Z,991.57
2022-09-11T03:32:49.824Z,991.59
2022-09-11T03:33:51.536Z,991.6
2022-09-11T03:34:53.299Z,991.63
2022-09-11T03:35:54.986Z,991.66
2022-09-11T03:36:56.784Z,991.69
2022-09-11T03:37:58.453Z,991.72
2022-09-11T03:39:00.202Z,991.75
2022-09-11T03:40:02.075Z,991.76
2022-09-11T03:41:03.681Z,991.79
2022-09-11T03:42:05.440Z,991.77
2022-09-11T03:43:07.151Z,991.75
2022-09-11T03:44:08.876Z,991.8
2022-09-11T03:45:10.618Z,991.78
2022-09-11T03:46:12.353Z,991.83
2022-09-11T03:47:14.088Z,991.83
2022-09-11T03:48:15.813Z,991.83
2022-09-11T03:49:17.583Z,991.83
2022-09-11T03:50:19.342Z,991.86
2022-09-11T03:51:21.022Z,991.82
2022-09-11T03:52:22.768Z,991.81
2022-09-11T03:53:24.529Z,991.82
2022-09-11T03:54:26.211Z,991.84
2022-09-11T03:55:27.978Z,991.84
2022-09-11T03:56:29.696Z,991.86
2022-09-11T03:57:31.452Z,991.9
2022-09-11T03:58:33.161Z,991.82
2022-09-11T03:59:34.897Z,991.87
2022-09-11T04:00:36.620Z,991.82
2022-09-11T04:01:38.452Z,991.86
2022-09-11T04:02:40.107Z,991.93
2022-09-11T04:03:41.953Z,991.93
2022-09-11T04:04:43.590Z,991.96
2022-09-11T04:05:45.314Z,991.98
2022-09-11T04:06:47.038Z,991.93
2022-09-11T04:07:48.777Z,991.99
2022-09-11T04:08:50.498Z,991.99
2022-09-11T04:09:52.253Z,992.02
2022-09-11T04:10:53.999Z,992.01
2022-09-11T04:11:55.760Z,992.04
2022-09-11T04:12:57.448Z,991.91
2022-09-11T04:13:59.203Z,991.99
2022-09-11T04:15:00.966Z,991.95
2022-09-11T04:16:05.777Z,991.97
2022-09-11T04:17:04.382Z,991.85
2022-09-11T04:18:06.119Z,991.96
2022-09-11T04:19:07.872Z,991.9
2022-09-11T04:20:09.622Z,991.96
2022-09-11T04:21:11.322Z,991.93
2022-09-11T04:22:13.065Z,991.94
2022-09-11T04:23:14.790Z,991.98
2022-09-11T04:24:16.529Z,991.95
2022-09-11T04:25:18.249Z,991.99
2022-09-11T04:26:20.233Z,991.96
2022-09-11T04:27:21.751Z,991.97
2022-09-11T04:28:23.555Z,991.99
2022-09-11T04:29:25.238Z,991.98
2022-09-11T04:30:26.919Z,992.04
2022-09-11T04:31:28.743Z,992.04
2022-09-11T04:32:30.388Z,992
2022-09-11T04:33:32.161Z,992.08
2022-09-11T04:34:34.185Z,992.05
2022-09-11T04:35:35.635Z,992.09
2022-09-11T04:36:37.339Z,992.04
2022-09-11T04:37:39.070Z,992.02
2022-09-11T04:38:40.850Z,992.09
2022-09-11T04:39:42.604Z,992.07
2022-09-11T04:40:44.320Z,992.09
2022-09-11T04:41:45.991Z,992.07
2022-09-11T04:42:47.778Z,992.1
2022-09-11T04:43:49.474Z,992.05
2022-09-11T04:44:51.198Z,992.06
2022-09-11T04:45:52.994Z,992.09
2022-09-11T04:46:54.685Z,992.09
2022-09-11T04:47:56.633Z,992.13
2022-09-11T04:48:58.136Z,992.13
2022-09-11T04:49:59.881Z,992.13
2022-09-11T04:51:01.632Z,992.13
2022-09-11T04:52:03.353Z,992.15
2022-09-11T04:53:05.109Z,992.18
2022-09-11T04:54:06.844Z,992.17
2022-09-11T04:55:08.562Z,992.16
2022-09-11T04:56:10.310Z,992.16
2022-09-11T04:57:12.006Z,992.19
2022-09-11T04:58:13.763Z,992.19
2022-09-11T04:59:15.513Z,992.24
2022-09-11T05:00:17.260Z,992.23
2022-09-11T05:01:19.004Z,992.28
2022-09-11T05:02:20.764Z,992.26
2022-09-11T05:03:22.477Z,992.24
2022-09-11T05:04:26.232Z,992.26
2022-09-11T05:05:25.906Z,992.28
2022-09-11T05:06:27.618Z,992.33
2022-09-11T05:07:29.357Z,992.31
2022-09-11T05:08:31.130Z,992.35
2022-09-11T05:09:32.837Z,992.34
2022-09-11T05:10:34.578Z,992.44
2022-09-11T05:11:36.339Z,992.38
2022-09-11T05:12:38.075Z,992.43
2022-09-11T05:13:39.770Z,992.43
2022-09-11T05:14:41.521Z,992.46
2022-09-11T05:15:43.269Z,992.45
2022-09-11T05:16:45.022Z,992.52
2022-09-11T05:17:46.701Z,992.58
2022-09-11T05:18:48.431Z,992.56
2022-09-11T05:19:50.227Z,992.6
2022-09-11T05:20:51.965Z,992.6
2022-09-11T05:21:53.669Z,992.61
2022-09-11T05:22:55.427Z,992.59
2022-09-11T05:23:57.119Z,992.66
2022-09-11T05:24:58.873Z,992.65
2022-09-11T05:26:00.626Z,992.68
2022-09-11T05:27:02.328Z,992.69
2022-09-11T05:28:04.061Z,992.63
2022-09-11T05:29:05.791Z,992.64
2022-09-11T05:30:07.528Z,992.65
2022-09-11T05:31:09.273Z,992.65
2022-09-11T05:32:11.003Z,992.66
2022-09-11T05:33:12.770Z,992.68
2022-09-11T05:34:14.467Z,992.7
2022-09-11T05:35:16.195Z,992.67
2022-09-11T05:36:17.961Z,992.74
2022-09-11T05:37:19.649Z,992.74
2022-09-11T05:38:21.440Z,992.72
2022-09-11T05:39:23.175Z,992.74
2022-09-11T05:40:24.871Z,992.73
2022-09-11T05:41:26.671Z,992.76
2022-09-11T05:42:28.370Z,992.74
2022-09-11T05:43:30.074Z,992.75
2022-09-11T05:44:31.827Z,992.75
2022-09-11T05:45:33.741Z,992.72
2022-09-11T05:46:41.017Z,992.79
2022-09-11T05:47:42.215Z,992.79
2022-09-11T05:48:43.964Z,992.78
2022-09-11T05:49:45.717Z,992.79
2022-09-11T05:50:47.399Z,992.76
2022-09-11T05:51:49.136Z,992.77
2022-09-11T05:52:50.860Z,992.78
2022-09-11T05:53:52.636Z,992.75
2022-09-11T05:54:54.339Z,992.77
2022-09-11T05:55:56.065Z,992.77
2022-09-11T05:56:57.807Z,992.79
2022-09-11T05:57:59.566Z,992.8
2022-09-11T05:59:01.298Z,992.76
2022-09-11T06:00:03.016Z,992.81
2022-09-11T06:01:04.823Z,992.82
2022-09-11T06:02:06.562Z,992.82
2022-09-11T06:03:10.619Z,992.82
2022-09-11T06:04:09.983Z,992.81
2022-09-11T06:05:11.719Z,992.81
2022-09-11T06:06:13.469Z,992.81
2022-09-11T06:07:15.157Z,992.75
2022-09-11T06:08:16.943Z,992.82
2022-09-11T06:09:18.640Z,992.81
2022-09-11T06:10:20.366Z,992.85
2022-09-11T06:11:22.107Z,992.86
2022-09-11T06:12:23.844Z,992.93
2022-09-11T06:13:25.593Z,992.92
2022-09-11T06:14:27.297Z,992.94
2022-09-11T06:15:45.798Z,992.99
2022-09-11T06:16:30.838Z,992.95
2022-09-11T06:17:32.522Z,993.02
2022-09-11T06:18:34.242Z,993.06
2022-09-11T06:19:36.023Z,993.04
2022-09-11T06:20:37.753Z,993.07
2022-09-11T06:21:39.488Z,993.09
2022-09-11T06:22:41.187Z,993.12
2022-09-11T06:23:43.109Z,993.15
2022-09-11T06:24:44.688Z,993.15
2022-09-11T06:25:46.402Z,993.17
2022-09-11T06:26:48.153Z,993.12
2022-09-11T06:27:49.872Z,993.2
2022-09-11T06:28:51.642Z,993.18
2022-09-11T06:29:53.323Z,993.22
2022-09-11T06:30:55.130Z,993.21
2022-09-11T06:31:56.793Z,993.16
2022-09-11T06:32:58.533Z,993.12
2022-09-11T06:34:00.268Z,993.13
2022-09-11T06:35:01.999Z,993.15
2022-09-11T06:36:03.742Z,993.23
2022-09-11T06:37:05.510Z,993.17
2022-09-11T06:38:07.226Z,993.16
2022-09-11T06:39:08.936Z,993.16
2022-09-11T06:40:10.759Z,993.18
2022-09-11T06:41:12.405Z,993.13
2022-09-11T06:42:14.169Z,993.14
2022-09-11T06:43:15.864Z,993.21
2022-09-11T06:44:17.618Z,993.14
2022-09-11T06:45:19.373Z,993.22
2022-09-11T06:46:21.105Z,993.21
2022-09-11T06:47:22.828Z,993.2
2022-09-11T06:48:24.533Z,993.25
2022-09-11T06:49:26.512Z,993.23
2022-09-11T06:50:28.008Z,993.21
2022-09-11T06:51:29.754Z,993.29
2022-09-11T06:52:31.476Z,993.25
2022-09-11T06:53:33.238Z,993.22
2022-09-11T06:54:34.982Z,993.24
2022-09-11T06:55:36.680Z,993.25
2022-09-11T06:56:38.448Z,993.23
2022-09-11T06:57:42.030Z,993.25
2022-09-11T06:58:41.896Z,993.2
2022-09-11T06:59:43.663Z,993.22
2022-09-11T07:00:45.449Z,993.21
2022-09-11T07:01:47.311Z,993.25
2022-09-11T07:02:48.861Z,993.22
2022-09-11T07:03:50.569Z,993.22
2022-09-11T07:04:52.313Z,993.25
2022-09-11T07:05:54.050Z,993.26
2022-09-11T07:06:55.766Z,993.25
2022-09-11T07:07:57.524Z,993.3
2022-09-11T07:08:59.233Z,993.29
2022-09-11T07:10:01.013Z,993.24
2022-09-11T07:11:03.735Z,993.27
2022-09-11T07:12:04.444Z,993.25
2022-09-11T07:13:06.233Z,993.24
2022-09-11T07:14:07.923Z,993.28
2022-09-11T07:15:09.643Z,993.27
2022-09-11T07:16:11.497Z,993.25
2022-09-11T07:17:13.186Z,993.26
2022-09-11T07:18:14.858Z,993.3
2022-09-11T07:19:16.608Z,993.25
2022-09-11T07:20:18.363Z,993.28
2022-09-11T07:21:20.106Z,993.25
2022-09-11T07:22:21.790Z,993.21
2022-09-11T07:23:23.542Z,993.23
2022-09-11T07:24:25.251Z,993.17
2022-09-11T07:25:27.031Z,993.2
2022-09-11T07:26:28.757Z,993.22
2022-09-11T07:27:30.508Z,993.23
2022-09-11T07:28:32.237Z,993.25
2022-09-11T07:29:33.928Z,993.18
2022-09-11T07:30:35.742Z,993.23
2022-09-11T07:31:37.400Z,993.23
2022-09-11T07:32:39.139Z,993.22
2022-09-11T07:33:40.864Z,993.21
2022-09-11T07:34:42.627Z,993.28
2022-09-11T07:35:44.347Z,993.27
2022-09-11T07:36:46.085Z,993.27
2022-09-11T07:37:50.823Z,993.28
2022-09-11T07:38:49.559Z,993.24
2022-09-11T07:39:51.320Z,993.27
2022-09-11T07:40:53.009Z,993.27
2022-09-11T07:41:54.732Z,993.26
2022-09-11T07:42:56.475Z,993.3
2022-09-11T07:43:58.187Z,993.27
2022-09-11T07:44:59.970Z,993.31
2022-09-11T07:46:01.764Z,993.35
2022-09-11T07:47:03.395Z,993.41
2022-09-11T07:48:05.142Z,993.37
2022-09-11T07:49:06.899Z,993.37
2022-09-11T07:50:08.616Z,993.4
2022-09-11T07:51:10.371Z,993.43
2022-09-11T07:52:16.638Z,993.47
2022-09-11T07:53:13.824Z,993.47
2022-09-11T07:54:15.538Z,993.46
2022-09-11T07:55:17.290Z,993.49
2022-09-11T07:56:19.032Z,993.46
2022-09-11T07:57:20.753Z,993.55
2022-09-11T07:58:22.480Z,993.52
2022-09-11T07:59:24.217Z,993.55
2022-09-11T08:00:25.983Z,993.53
2022-09-11T08:01:27.829Z,993.56
2022-09-11T08:02:29.528Z,993.59
2022-09-11T08:03:31.196Z,993.55
2022-09-11T08:04:32.892Z,993.62
2022-09-11T08:05:34.639Z,993.62
2022-09-11T08:06:36.382Z,993.61
2022-09-11T08:07:38.087Z,993.59
2022-09-11T08:08:39.844Z,993.63
2022-09-11T08:09:41.553Z,993.69
2022-09-11T08:10:43.361Z,993.61
2022-09-11T08:11:45.050Z,993.64
2022-09-11T08:12:46.767Z,993.68
2022-09-11T08:13:48.499Z,993.67
2022-09-11T08:14:50.219Z,993.68
2022-09-11T08:15:51.959Z,993.67
2022-09-11T08:16:53.692Z,993.68
2022-09-11T08:17:55.421Z,993.65
2022-09-11T08:18:57.198Z,993.64
2022-09-11T08:19:58.924Z,993.62
2022-09-11T08:21:00.664Z,993.65
2022-09-11T08:22:02.369Z,993.63
2022-09-11T08:23:04.094Z,993.61
2022-09-11T08:24:05.828Z,993.63
2022-09-11T08:25:07.587Z,993.59
2022-09-11T08:26:09.312Z,993.6
2022-09-11T08:27:11.052Z,993.63
2022-09-11T08:28:12.791Z,993.59
2022-09-11T08:29:14.546Z,993.62
2022-09-11T08:30:16.243Z,993.58
2022-09-11T08:31:18.004Z,993.57
2022-09-11T08:32:19.730Z,993.54
2022-09-11T08:33:21.445Z,993.6
2022-09-11T08:34:23.164Z,993.61
2022-09-11T08:35:24.899Z,993.61
2022-09-11T08:36:26.658Z,993.61
2022-09-11T08:37:28.397Z,993.66
2022-09-11T08:38:30.159Z,993.65
2022-09-11T08:39:31.844Z,993.72
2022-09-11T08:40:33.566Z,993.72
2022-09-11T08:41:35.297Z,993.73
2022-09-11T08:42:37.071Z,993.81
2022-09-11T08:43:38.777Z,993.82
2022-09-11T08:44:40.553Z,993.75
2022-09-11T08:45:42.301Z,993.78
2022-09-11T08:46:44.017Z,993.78
2022-09-11T08:47:45.739Z,993.73
2022-09-11T08:48:47.455Z,993.7
2022-09-11T08:49:49.176Z,993.74
2022-09-11T08:50:50.949Z,993.78
2022-09-11T08:51:52.678Z,993.76
2022-09-11T08:52:54.402Z,993.78
2022-09-11T08:53:56.112Z,993.77
2022-09-11T08:54:57.845Z,993.75
2022-09-11T08:55:59.619Z,993.73
2022-09-11T08:57:01.319Z,993.74
2022-09-11T08:58:03.073Z,993.75
2022-09-11T08:59:04.784Z,993.74
2022-09-11T09:00:06.550Z,993.77
2022-09-11T09:01:08.288Z,993.79
2022-09-11T09:02:10.074Z,993.81
2022-09-11T09:03:11.768Z,993.78
2022-09-11T09:04:13.492Z,993.72
2022-09-11T09:05:15.210Z,993.77
2022-09-11T09:06:16.980Z,993.8
2022-09-11T09:07:18.717Z,993.76
2022-09-11T09:08:20.397Z,993.8
2022-09-11T09:09:23.191Z,993.82
2022-09-11T09:10:23.910Z,993.86
2022-09-11T09:11:25.621Z,993.87
2022-09-11T09:12:27.341Z,993.82
2022-09-11T09:13:29.080Z,993.9
2022-09-11T09:14:30.835Z,993.88
2022-09-11T09:15:32.568Z,993.88
2022-09-11T09:16:34.319Z,993.9
2022-09-11T09:17:36.015Z,993.94
2022-09-11T09:18:37.818Z,993.95
2022-09-11T09:19:39.523Z,993.96
2022-09-11T09:20:41.250Z,993.91
2022-09-11T09:21:42.949Z,993.93
2022-09-11T09:22:44.737Z,993.9
2022-09-11T09:23:46.413Z,993.94
2022-09-11T09:24:48.159Z,993.95
2022-09-11T09:25:49.903Z,993.95
2022-09-11T09:26:51.672Z,993.98
2022-09-11T09:27:53.357Z,993.97
2022-09-11T09:28:55.104Z,993.95
2022-09-11T09:29:56.900Z,993.93
2022-09-11T09:30:58.692Z,993.94
2022-09-11T09:32:00.364Z,993.96
2022-09-11T09:33:02.059Z,994
2022-09-11T09:34:03.776Z,993.98
2022-09-11T09:35:05.509Z,994
2022-09-11T09:36:07.259Z,994.02
2022-09-11T09:37:09.029Z,994
2022-09-11T09:38:10.754Z,994.04
2022-09-11T09:39:12.445Z,994.01
2022-09-11T09:40:14.223Z,994.02
2022-09-11T09:41:15.957Z,993.99
2022-09-11T09:42:17.674Z,993.93
2022-09-11T09:43:19.378Z,994
2022-09-11T09:44:21.210Z,994.03
2022-09-11T09:49:51.278Z,993.98
2022-09-11T09:50:52.978Z,994.01
2022-09-11T09:51:54.740Z,993.97
2022-09-11T09:52:56.441Z,994.05
2022-09-11T09:53:58.181Z,993.99
2022-09-11T09:55:10.261Z,994
2022-09-11T09:56:11.924Z,994
2022-09-11T09:57:13.655Z,994.01
2022-09-11T09:58:15.390Z,993.99
2022-09-11T09:59:17.141Z,993.99
2022-09-11T10:00:20.912Z,994.02
2022-09-11T10:01:27.398Z,994.03
2022-09-11T10:02:27.684Z,994.03
2022-09-11T10:03:35.105Z,994.04
2022-09-11T10:04:36.305Z,994.02
2022-09-11T10:05:38.046Z,994
2022-09-11T10:06:39.816Z,994.04
2022-09-11T10:07:41.611Z,994.03
2022-09-11T10:08:43.411Z,994.02
2022-09-11T10:09:45.014Z,994.04
2022-09-11T10:10:47.914Z,993.97
2022-09-11T10:11:52.712Z,994.03
2022-09-11T10:14:08.935Z,993.95
2022-09-11T10:15:13.225Z,993.97
2022-09-11T10:19:17.285Z,993.92
2022-09-11T10:20:18.821Z,993.92
2022-09-11T10:21:20.556Z,993.9
2022-09-11T10:22:22.345Z,993.88
2022-09-11T10:23:24.043Z,993.86
2022-09-11T10:24:25.737Z,993.87
2022-09-11T10:25:27.491Z,993.82
2022-09-11T10:26:29.232Z,993.84
2022-09-11T10:27:30.946Z,993.82
2022-09-11T10:28:32.691Z,993.82
2022-09-11T10:29:34.467Z,993.85
2022-09-11T10:30:36.179Z,993.84
2022-09-11T10:31:37.927Z,993.88
2022-09-11T10:32:39.652Z,993.86
2022-09-11T10:33:41.406Z,993.89
2022-09-11T10:34:43.114Z,993.86
2022-09-11T10:35:44.823Z,993.89
2022-09-11T10:36:46.567Z,993.79
2022-09-11T10:37:48.283Z,993.78
2022-09-11T10:38:50.014Z,993.72
2022-09-11T10:39:51.798Z,993.76
2022-09-11T10:40:53.511Z,993.77
2022-09-11T10:41:55.240Z,993.78
2022-09-11T10:42:56.963Z,993.79
2022-09-11T10:43:58.755Z,993.78
2022-09-11T10:45:00.460Z,993.83
2022-09-11T10:46:05.345Z,993.8
2022-09-11T10:47:03.916Z,993.82
2022-09-11T10:48:05.636Z,993.79
2022-09-11T10:49:07.375Z,993.76
2022-09-11T10:50:09.087Z,993.81
2022-09-11T10:51:10.895Z,993.76
2022-09-11T10:52:12.578Z,993.77
2022-09-11T10:53:14.311Z,993.82
2022-09-11T10:54:16.061Z,993.8
2022-09-11T10:55:17.792Z,993.79
2022-09-11T10:56:19.497Z,993.78
2022-09-11T10:57:21.258Z,993.81
2022-09-11T10:58:22.975Z,993.72
2022-09-11T10:59:24.716Z,993.77
2022-09-11T11:00:26.444Z,993.74
2022-09-11T11:01:28.255Z,993.76
2022-09-11T11:02:30.031Z,993.77
2022-09-11T11:03:31.654Z,993.77
2022-09-11T11:04:33.399Z,993.79
2022-09-11T11:05:35.156Z,993.8
2022-09-11T11:06:36.873Z,993.82
2022-09-11T11:07:38.617Z,993.8
2022-09-11T11:08:40.493Z,993.79
2022-09-11T11:09:42.137Z,993.78
2022-09-11T11:10:43.835Z,993.74
2022-09-11T11:11:45.568Z,993.77
2022-09-11T11:12:47.287Z,993.77
2022-09-11T11:13:49.003Z,993.78
2022-09-11T11:14:50.756Z,993.79
2022-09-11T11:15:52.534Z,993.84
2022-09-11T11:16:54.194Z,993.82
2022-09-11T11:17:55.929Z,993.83
2022-09-11T11:18:57.662Z,993.81
2022-09-11T11:19:59.461Z,993.8
2022-09-11T11:21:01.316Z,993.8
2022-09-11T11:22:02.912Z,993.8
2022-09-11T11:23:07.293Z,993.76
2022-09-11T11:24:11.648Z,993.78
2022-09-11T11:25:13.283Z,993.77
2022-09-11T11:26:15.009Z,993.75
2022-09-11T11:27:16.707Z,993.77
2022-09-11T11:28:18.471Z,993.79
2022-09-11T11:29:20.242Z,993.79
2022-09-11T11:30:21.961Z,993.78
2022-09-11T11:31:23.778Z,993.81
2022-09-11T11:32:25.428Z,993.77
2022-09-11T11:33:27.163Z,993.8
2022-09-11T11:34:28.911Z,993.78
2022-09-11T11:35:30.621Z,993.76
2022-09-11T11:36:32.358Z,993.73
2022-09-11T11:37:34.052Z,993.76
2022-09-11T11:38:35.825Z,993.78
2022-09-11T11:39:37.566Z,993.83
2022-09-11T11:40:39.299Z,993.79
2022-09-11T11:41:40.976Z,993.79
2022-09-11T11:42:42.751Z,993.78
2022-09-11T11:43:44.402Z,993.82
2022-09-11T11:44:46.144Z,993.81
2022-09-11T11:45:47.931Z,993.82
2022-09-11T11:46:58.443Z,993.75
2022-09-11T11:47:59.733Z,993.81
2022-09-11T11:49:01.472Z,993.83
2022-09-11T11:50:03.178Z,993.86
2022-09-11T11:51:04.932Z,993.86
2022-09-11T11:52:06.647Z,993.84
2022-09-11T11:53:08.370Z,993.85
2022-09-11T11:54:10.141Z,993.83
2022-09-11T11:55:11.863Z,993.85
2022-09-11T11:56:13.602Z,993.84
2022-09-11T11:57:15.304Z,993.86
2022-09-11T11:58:17.051Z,993.83
2022-09-11T11:59:23.798Z,993.79
2022-09-11T12:00:25.808Z,993.82
2022-09-11T12:01:27.303Z,993.78
2022-09-11T12:02:29.020Z,993.78
2022-09-11T12:03:30.787Z,993.78
2022-09-11T12:04:32.565Z,993.78
2022-09-11T12:05:34.237Z,993.76
2022-09-11T12:06:35.996Z,993.76
2022-09-11T12:07:37.710Z,993.72
2022-09-11T12:08:39.535Z,993.73
2022-09-11T12:09:41.180Z,993.68
2022-09-11T12:10:42.884Z,993.72
2022-09-11T12:11:44.643Z,993.74
2022-09-11T12:12:46.342Z,993.74
2022-09-11T12:13:48.071Z,993.69
2022-09-11T12:14:49.817Z,993.72
2022-09-11T12:15:51.585Z,993.68
2022-09-11T12:16:53.293Z,993.7
2022-09-11T12:17:55.018Z,993.75
2022-09-11T12:18:56.755Z,993.73
2022-09-11T12:19:58.510Z,993.7
2022-09-11T12:21:00.281Z,993.71
2022-09-11T12:22:02.014Z,993.73
2022-09-11T12:23:03.697Z,993.69
2022-09-11T12:24:05.437Z,993.72
2022-09-11T12:25:07.187Z,993.72
2022-09-11T12:26:08.901Z,993.68
2022-09-11T12:27:11.925Z,993.76
2022-09-11T12:28:12.371Z,993.72
2022-09-11T12:29:15.475Z,993.69
2022-09-11T12:30:15.851Z,993.63
2022-09-11T12:31:17.658Z,993.7
2022-09-11T12:32:19.338Z,993.66
2022-09-11T12:33:21.049Z,993.7
2022-09-11T12:34:22.803Z,993.7
2022-09-11T12:35:24.533Z,993.67
2022-09-11T12:36:26.262Z,993.69
2022-09-11T12:37:27.973Z,993.68
2022-09-11T12:38:29.714Z,993.66
2022-09-11T12:39:31.438Z,993.68
2022-09-11T12:40:33.196Z,993.68
2022-09-11T12:41:34.910Z,993.67
2022-09-11T12:42:36.652Z,993.67
2022-09-11T12:43:38.416Z,993.66
2022-09-11T12:44:40.127Z,993.68
2022-09-11T12:45:41.912Z,993.68
2022-09-11T12:46:43.591Z,993.66
2022-09-11T12:47:46.362Z,993.66
2022-09-11T12:49:00.304Z,993.63
2022-09-11T12:49:48.779Z,993.62
2022-09-11T12:50:50.544Z,993.64
2022-09-11T12:51:52.267Z,993.61
2022-09-11T12:52:54.004Z,993.6
2022-09-11T12:53:55.791Z,993.59
2022-09-11T12:54:57.472Z,993.6
2022-09-11T12:55:59.210Z,993.59
2022-09-11T12:57:01.015Z,993.57
2022-09-11T12:58:02.711Z,993.55
2022-09-11T12:59:04.397Z,993.52
2022-09-11T13:00:06.286Z,993.51
2022-09-11T13:01:07.956Z,993.53
2022-09-11T13:02:09.707Z,993.54
2022-09-11T13:03:11.357Z,993.5